Gatlinburg, TN

2:21 PM EDT on September 16, 2014 (GMT -0400)
Andrews | Change Station
CLOSE
Current Station
Airport
Location: Andrews,
Elevation: 1696 ft
Nearby Weather Stations

Elev 1696 ft 35.20 °N, 83.86 °W | Updated 6 minutes ago

Mostly Cloudy
Mostly Cloudy
78 °F
Feels Like 78 °F
N
5
Wind Variable Wind from WNW

Today
High -- | Low -- °F
--% Chance of Precip.
Yesterday
High -- | Low -- °F
Precip. -- in
7:17 AM 7:39 PM
Last Quarter, 43% visible
Pressure 30.08 in
Visibility 10.0 miles
Clouds Scattered Clouds 4800 ft
Mostly Cloudy 5500 ft
Overcast 7000 ft
Dew Point 67 °F
Humidity 68%
Rainfall 0.00 in
Snow Depth Not available.
UV 3 out of 12
Pollen 7.50 out of 12
Air Quality Not available.
Flu Activity Not available.
METAR KRHP 161815Z AUTO 30004KT 10SM SCT048 BKN055 OVC070 26/19 A3008 RMK AO2 T02560192

More Conditions Fewer Conditions

Pressure 30.08 in
Visibility 10.0 miles
Clouds Scattered Clouds 4800 ft
Mostly Cloudy 5500 ft
Overcast 7000 ft
Dew Point 67 °F
Humidity 68%
Rainfall 0.00 in
Snow Depth Not available.
UV 3 out of 12
Pollen 7.50 out of 12
Air Quality Not available.
Flu Activity Not available.
METAR KRHP 161815Z AUTO 30004KT 10SM SCT048 BKN055 OVC070 26/19 A3008 RMK AO2 T02560192

More Conditions Fewer Conditions

10-Day Weather Forecast

Almanac

Astronomy

Sep. 16, 2014 Rise Set
Actual Time 7:17 AM EDT 7:39 PM EDT
Civil Twilight 6:51 AM EDT 8:05 PM EDT
Nautical Twilight 6:21 AM EDT 8:35 PM EDT
Astronomical Twilight 5:51 AM EDT 9:05 PM EDT
Moon 12:34 AM EDT 2:54 PM EDT
Length of Visible Light 13h 13m
Length of Day
12h 22m
Tomorrow will be 2m 15s shorter.
Last Quarter, 43% of the Moon is Illuminated
Today
Last Quarter
Sep 24
New
Oct 1
First Quarter
Oct 8
Full
Oct 15
Last Quarter

Today's Extremes

State Highs State Lows

Community

WunderPhotos

Upload Photos

1,753,852 photos uploaded!

WunderBlogs® & News

Nearby

Snow Depth

Station Depth Elevation
No new snow has been reported.

Earthquake Activity

City Distance Mag. Time & Date
No recent earthquake activity has been reported nearby.
Minimum magnitude displayed is 2.5.

Coastal Water Temperatures

Place Temperature
No Stations Reporting

Nearby Weather Stations